Time;durP1;ratioP1;P1;durP2;ratioP2;P2;SDS_P1;SDS_P2;PMS_P1;PMS_P2;Temp;Humidity;BMP_temperature;BMP_pressure;BME280_temperature;BME280_humidity;BME280_pressure;Samples;Min_cycle;Max_cycle;Signal;HPM_P1;HPM_P2
2020/12/18 00:02:07;;;;;;;21.80;10.02;;;6.90;99.90;;;;;;5076413;28;20012;-74
2020/12/18 00:04:32;;;;;;;18.77;10.30;;;6.80;99.90;;;;;;5076149;28;20028;-74
2020/12/18 00:06:58;;;;;;;24.10;11.00;;;6.80;99.90;;;;;;5058409;28;20050;-74
2020/12/18 00:09:23;;;;;;;17.40;9.93;;;6.70;99.90;;;;;;5058344;28;20078;-74
2020/12/18 00:11:49;;;;;;;19.85;10.02;;;6.70;99.90;;;;;;5058257;28;20074;-74
2020/12/18 00:14:14;;;;;;;23.83;11.68;;;6.70;99.90;;;;;;5076246;28;20540;-74
2020/12/18 00:16:40;;;;;;;19.45;9.57;;;6.70;99.90;;;;;;5075999;28;20036;-74
2020/12/18 00:19:05;;;;;;;17.75;10.18;;;6.70;99.90;;;;;;5075877;28;20476;-74
2020/12/18 00:21:31;;;;;;;20.73;10.52;;;6.70;99.90;;;;;;5076003;28;20025;-74
2020/12/18 00:23:56;;;;;;;21.65;10.68;;;6.70;99.90;;;;;;5076076;28;20422;-74
2020/12/18 00:26:22;;;;;;;20.60;10.68;;;6.70;99.90;;;;;;5075934;28;20027;-74
2020/12/18 00:28:48;;;;;;;17.02;10.05;;;6.60;99.90;;;;;;5075885;28;20035;-74
2020/12/18 00:31:14;;;;;;;21.63;11.35;;;6.60;99.90;;;;;;5075955;28;20621;-73
2020/12/18 00:33:40;;;;;;;18.67;10.02;;;6.60;99.90;;;;;;5057626;28;20116;-74
2020/12/18 00:36:12;;;;;;;20.08;10.52;;;6.60;99.90;;;;;;5071402;28;20178;-74
2020/12/18 00:38:38;;;;;;;20.05;10.48;;;6.60;99.90;;;;;;5077633;28;20035;-74
2020/12/18 00:41:04;;;;;;;17.88;9.68;;;6.60;99.90;;;;;;5077810;28;20020;-74
2020/12/18 00:43:30;;;;;;;21.00;11.35;;;6.60;99.90;;;;;;5095769;28;20028;-74
2020/12/18 00:45:55;;;;;;;22.05;10.45;;;6.60;99.90;;;;;;5096083;28;20020;-75
2020/12/18 00:48:21;;;;;;;21.48;10.77;;;6.60;99.90;;;;;;5095361;28;20043;-75
2020/12/18 00:50:46;;;;;;;17.55;9.75;;;6.60;99.90;;;;;;5095427;28;20097;-74
2020/12/18 00:53:12;;;;;;;20.35;10.13;;;6.50;99.90;;;;;;5077495;28;20028;-74
2020/12/18 00:55:37;;;;;;;21.17;10.25;;;6.50;99.90;;;;;;5077545;28;20077;-74
2020/12/18 00:58:03;;;;;;;20.17;9.95;;;6.50;99.90;;;;;;5095584;28;20406;-74
2020/12/18 01:00:28;;;;;;;20.33;9.75;;;6.50;99.90;;;;;;5095473;28;20070;-74
2020/12/18 01:02:54;;;;;;;18.00;10.07;;;6.50;99.90;;;;;;5095494;28;20021;-75
2020/12/18 01:05:20;;;;;;;17.50;9.35;;;6.50;99.90;;;;;;5077353;28;20376;-74
2020/12/18 01:07:45;;;;;;;20.33;9.20;;;6.50;99.90;;;;;;5095447;28;20024;-75
2020/12/18 01:10:11;;;;;;;16.98;10.07;;;6.40;99.90;;;;;;5095508;28;20476;-74
2020/12/18 01:12:36;;;;;;;19.05;9.00;;;6.50;99.90;;;;;;5077125;28;20035;-74
2020/12/18 01:15:02;;;;;;;18.90;8.93;;;6.40;99.90;;;;;;5077358;28;20028;-74
2020/12/18 01:17:27;;;;;;;17.23;9.40;;;6.40;99.90;;;;;;5095042;28;20538;-75
2020/12/18 01:19:53;;;;;;;16.67;9.27;;;6.40;99.90;;;;;;5095155;28;20032;-74
2020/12/18 01:22:18;;;;;;;20.15;10.50;;;6.40;99.90;;;;;;5095192;28;20027;-75
2020/12/18 01:24:44;;;;;;;18.20;9.25;;;6.40;99.90;;;;;;5076988;28;20111;-74
2020/12/18 01:27:10;;;;;;;16.95;8.80;;;6.40;99.90;;;;;;5076932;28;20414;-74
2020/12/18 01:29:35;;;;;;;17.10;9.48;;;6.40;99.90;;;;;;5076914;28;20032;-75
2020/12/18 01:32:01;;;;;;;16.23;9.10;;;6.40;99.90;;;;;;5094939;28;20546;-74
2020/12/18 01:34:26;;;;;;;17.38;9.35;;;6.40;99.90;;;;;;5094708;28;20118;-74
2020/12/18 01:36:52;;;;;;;18.15;9.02;;;6.40;99.90;;;;;;5056628;28;20078;-74
2020/12/18 01:39:17;;;;;;;17.83;9.45;;;6.40;99.90;;;;;;5074539;28;20027;-74
2020/12/18 01:41:43;;;;;;;17.83;10.07;;;6.40;99.90;;;;;;5056718;28;20555;-74
2020/12/18 01:44:08;;;;;;;18.08;9.32;;;6.40;99.90;;;;;;5056530;28;20020;-74
2020/12/18 01:46:36;;;;;;;23.23;9.82;;;6.40;99.90;;;;;;5074434;28;20020;-74
2020/12/18 01:49:02;;;;;;;15.25;8.57;;;6.30;99.90;;;;;;5056263;28;20045;-74
2020/12/18 01:51:27;;;;;;;18.67;10.13;;;6.30;99.90;;;;;;5056366;28;20021;-74
2020/12/18 01:53:54;;;;;;;15.57;8.82;;;6.30;99.90;;;;;;5074307;28;20067;-74
2020/12/18 01:56:21;;;;;;;17.40;8.65;;;6.30;99.90;;;;;;5074316;28;20025;-74
2020/12/18 01:58:50;;;;;;;17.40;9.98;;;6.20;99.90;;;;;;5074220;28;20028;-74
2020/12/18 02:01:16;;;;;;;13.07;8.47;;;6.30;99.90;;;;;;5073391;28;20468;-74
2020/12/18 02:03:42;;;;;;;18.50;8.98;;;6.30;99.90;;;;;;5074066;28;20029;-74
2020/12/18 02:06:12;;;;;;;17.17;8.35;;;6.30;99.90;;;;;;5056185;28;20029;-74
2020/12/18 02:08:42;;;;;;;14.80;8.63;;;6.30;99.90;;;;;;5056124;28;20074;-74
2020/12/18 02:11:14;;;;;;;14.40;8.25;;;6.20;99.90;;;;;;5056067;28;20426;-74
2020/12/18 02:13:40;;;;;;;17.48;9.23;;;6.20;99.90;;;;;;5055914;28;20529;-74
2020/12/18 02:16:05;;;;;;;17.60;8.88;;;6.20;99.90;;;;;;5056184;28;20108;-74
2020/12/18 02:18:31;;;;;;;18.98;9.02;;;6.20;99.90;;;;;;5055737;28;20549;-74
2020/12/18 02:20:56;;;;;;;18.35;8.82;;;6.20;99.90;;;;;;5073653;28;20028;-74
2020/12/18 02:23:22;;;;;;;18.17;8.68;;;6.20;99.90;;;;;;5073811;28;20017;-74
2020/12/18 02:26:18;;;;;;;17.50;8.40;;;6.20;99.90;;;;;;5055941;28;20480;-74
2020/12/18 02:28:48;;;;;;;21.98;8.93;;;6.20;99.90;;;;;;5053780;28;20086;-74
2020/12/18 02:31:14;;;;;;;16.15;9.75;;;6.30;99.90;;;;;;5073782;28;20439;-74
2020/12/18 02:33:41;;;;;;;17.60;7.65;;;6.20;99.90;;;;;;5055636;28;20067;-74
2020/12/18 02:36:06;;;;;;;15.48;8.07;;;6.30;99.90;;;;;;5087260;28;20077;-74
2020/12/18 02:38:33;;;;;;;13.57;8.07;;;6.30;99.90;;;;;;5093636;28;20024;-74
2020/12/18 02:40:59;;;;;;;19.75;8.15;;;6.20;99.90;;;;;;5075430;28;20475;-74
2020/12/18 02:43:24;;;;;;;18.95;8.27;;;6.20;99.90;;;;;;5093623;28;20039;-74
2020/12/18 02:45:50;;;;;;;17.10;9.02;;;6.20;99.90;;;;;;5075502;28;20091;-74
2020/12/18 02:48:17;;;;;;;14.60;7.25;;;6.20;99.90;;;;;;5075422;28;20054;-74
2020/12/18 02:50:43;;;;;;;19.40;9.35;;;6.20;99.90;;;;;;5075165;28;20055;-74
2020/12/18 02:53:14;;;;;;;20.25;8.82;;;6.20;99.90;;;;;;5093255;28;20031;-74
2020/12/18 02:55:40;;;;;;;20.75;8.43;;;6.20;99.90;;;;;;5075556;28;20032;-74
2020/12/18 02:58:06;;;;;;;19.67;7.82;;;6.20;99.90;;;;;;5093324;28;20047;-74
2020/12/18 03:00:32;;;;;;;17.85;8.60;;;6.20;99.90;;;;;;5075112;28;20387;-74
2020/12/18 03:02:57;;;;;;;19.35;8.77;;;6.20;99.90;;;;;;5075300;28;20492;-74
2020/12/18 03:05:23;;;;;;;17.75;8.40;;;6.30;99.90;;;;;;5075132;28;20479;-74
2020/12/18 03:07:48;;;;;;;17.42;8.32;;;6.20;99.90;;;;;;5093030;28;20036;-74
2020/12/18 03:10:14;;;;;;;15.25;7.43;;;6.30;99.90;;;;;;5074970;28;20028;-74
2020/12/18 03:12:39;;;;;;;16.30;8.35;;;6.20;99.90;;;;;;5093096;28;20071;-74
2020/12/18 03:15:05;;;;;;;16.67;7.55;;;6.20;99.90;;;;;;5093133;28;20108;-74
2020/12/18 03:17:30;;;;;;;18.52;8.30;;;6.20;99.90;;;;;;5074993;28;20494;-74
2020/12/18 03:19:56;;;;;;;15.10;8.50;;;6.20;99.90;;;;;;5074991;28;20020;-74
2020/12/18 03:22:21;;;;;;;14.07;8.20;;;6.20;99.90;;;;;;5092885;28;20028;-74
2020/12/18 03:24:47;;;;;;;17.40;8.98;;;6.20;99.90;;;;;;5074798;28;20016;-74
2020/12/18 03:27:12;;;;;;;14.25;6.95;;;6.20;99.90;;;;;;5093054;28;20061;-74
2020/12/18 03:29:38;;;;;;;16.58;7.93;;;6.20;99.90;;;;;;5092951;28;20047;-74
2020/12/18 03:32:03;;;;;;;15.63;8.57;;;6.20;99.90;;;;;;5093028;28;20055;-75
2020/12/18 03:34:29;;;;;;;14.25;7.95;;;6.20;99.90;;;;;;5074472;28;20094;-74
2020/12/18 03:36:54;;;;;;;19.98;7.35;;;6.10;99.90;;;;;;5072517;28;20029;-74
2020/12/18 03:39:20;;;;;;;20.15;7.80;;;6.20;99.90;;;;;;5054661;28;20021;-74
2020/12/18 03:41:45;;;;;;;15.35;8.80;;;6.10;99.90;;;;;;5054608;28;20588;-75
2020/12/18 03:44:11;;;;;;;12.13;7.45;;;6.10;99.90;;;;;;5072614;28;20032;-74
2020/12/18 03:46:36;;;;;;;14.13;7.00;;;6.20;99.90;;;;;;5072657;28;20025;-75
2020/12/18 03:49:02;;;;;;;16.30;7.63;;;6.20;99.90;;;;;;5054451;28;20037;-74
2020/12/18 03:51:27;;;;;;;16.40;7.15;;;6.10;99.90;;;;;;5072528;28;20028;-74
2020/12/18 03:53:53;;;;;;;16.30;7.85;;;6.20;99.90;;;;;;5072264;28;20029;-74
2020/12/18 03:56:18;;;;;;;14.80;7.20;;;6.10;99.90;;;;;;5072643;28;20025;-74
2020/12/18 03:58:44;;;;;;;14.48;7.10;;;6.10;99.90;;;;;;5072275;28;20468;-74
2020/12/18 04:01:09;;;;;;;17.75;8.30;;;6.10;99.90;;;;;;5054559;28;20032;-74
2020/12/18 04:03:35;;;;;;;15.70;7.68;;;6.10;99.90;;;;;;5072497;28;20020;-74
2020/12/18 04:06:00;;;;;;;15.23;7.03;;;6.10;99.90;;;;;;5072421;28;20039;-74
2020/12/18 04:08:26;;;;;;;15.20;7.93;;;6.10;99.90;;;;;;5072255;28;20035;-74
2020/12/18 04:10:51;;;;;;;12.95;6.78;;;6.10;99.90;;;;;;5054672;28;20115;-74
2020/12/18 04:13:17;;;;;;;13.55;6.70;;;6.10;99.90;;;;;;5072399;28;20075;-74
2020/12/18 04:15:42;;;;;;;18.45;7.45;;;6.10;99.90;;;;;;5054366;28;20024;-74
2020/12/18 04:18:09;;;;;;;15.25;7.45;;;6.10;99.90;;;;;;5054438;28;20024;-74
2020/12/18 04:20:35;;;;;;;14.70;6.60;;;6.10;99.90;;;;;;5054196;28;20477;-74
2020/12/18 04:23:01;;;;;;;15.43;7.75;;;6.10;99.90;;;;;;5054101;28;20407;-74
2020/12/18 04:25:27;;;;;;;17.10;7.32;;;6.10;99.90;;;;;;5056351;28;20528;-74
2020/12/18 04:27:52;;;;;;;16.25;7.32;;;6.10;99.90;;;;;;5076043;28;20029;-74
2020/12/18 04:30:18;;;;;;;16.13;6.68;;;6.10;99.90;;;;;;5058041;28;20476;-74
2020/12/18 04:32:43;;;;;;;11.70;6.82;;;6.10;99.90;;;;;;5075774;28;20107;-74
2020/12/18 04:35:09;;;;;;;16.58;6.93;;;6.20;99.90;;;;;;5081538;28;20032;-74
2020/12/18 04:37:34;;;;;;;12.80;6.97;;;6.20;99.90;;;;;;5077730;28;20024;-74
2020/12/18 04:40:00;;;;;;;21.42;7.15;;;6.20;99.90;;;;;;5095856;28;20035;-74
2020/12/18 04:42:25;;;;;;;13.75;6.80;;;6.10;99.90;;;;;;5077810;28;20114;-74
2020/12/18 04:44:52;;;;;;;18.15;7.28;;;6.10;99.90;;;;;;5077713;28;20056;-74
2020/12/18 04:47:18;;;;;;;15.15;6.65;;;6.10;99.90;;;;;;5077767;28;20028;-74
2020/12/18 04:49:45;;;;;;;14.25;6.88;;;6.20;99.90;;;;;;5095592;28;20117;-74
2020/12/18 04:52:13;;;;;;;12.73;6.50;;;6.20;99.90;;;;;;5095695;28;20400;-74
2020/12/18 04:54:41;;;;;;;20.58;6.45;;;6.10;99.90;;;;;;5095574;28;20028;-74
2020/12/18 04:57:08;;;;;;;11.32;6.18;;;6.10;99.90;;;;;;5077543;28;20028;-74
2020/12/18 04:59:34;;;;;;;9.13;6.07;;;6.10;99.90;;;;;;5077445;28;20024;-74
2020/12/18 05:02:00;;;;;;;13.20;6.05;;;6.20;99.90;;;;;;5062927;28;20024;-74
2020/12/18 05:04:27;;;;;;;11.98;5.90;;;6.20;99.90;;;;;;5074863;28;20060;-74
2020/12/18 05:06:52;;;;;;;14.00;5.28;;;6.10;99.90;;;;;;5056540;28;20524;-74
2020/12/18 05:09:18;;;;;;;17.55;7.00;;;6.20;99.90;;;;;;5075358;28;20154;-74
2020/12/18 05:11:47;;;;;;;12.73;6.18;;;6.20;99.90;;;;;;5057131;28;20471;-74
2020/12/18 05:14:13;;;;;;;13.43;6.25;;;6.20;99.90;;;;;;5057165;28;20020;-74
2020/12/18 05:16:40;;;;;;;13.90;6.80;;;6.10;99.90;;;;;;5074984;28;20392;-74
2020/12/18 05:19:06;;;;;;;13.13;6.30;;;6.10;99.90;;;;;;5056997;28;20023;-74
2020/12/18 05:21:32;;;;;;;9.75;6.35;;;6.10;99.90;;;;;;5057033;28;20020;-74
2020/12/18 05:23:58;;;;;;;14.88;6.72;;;6.10;99.90;;;;;;5074945;28;20104;-74
2020/12/18 05:26:28;;;;;;;13.77;6.18;;;6.10;99.90;;;;;;5074731;28;20052;-74
2020/12/18 05:29:05;;;;;;;13.30;6.43;;;6.10;99.90;;;;;;5057053;28;20028;-74
2020/12/18 05:31:32;;;;;;;11.07;6.55;;;6.00;99.90;;;;;;5074439;28;20028;-74
2020/12/18 05:33:59;;;;;;;14.55;6.90;;;5.90;99.90;;;;;;5074774;28;20551;-74
2020/12/18 05:36:26;;;;;;;14.63;6.95;;;6.00;99.90;;;;;;5073380;28;20054;-74
2020/12/18 05:38:52;;;;;;;13.35;6.50;;;5.90;99.90;;;;;;5056733;28;20039;-74
2020/12/18 05:41:22;;;;;;;17.30;6.63;;;5.90;99.90;;;;;;5056492;28;20108;-74
2020/12/18 05:43:48;;;;;;;13.82;7.13;;;5.90;99.90;;;;;;5074502;28;20024;-74
2020/12/18 05:46:24;;;;;;;17.55;7.60;;;5.80;99.90;;;;;;5074391;28;20484;-74
2020/12/18 05:49:06;;;;;;;14.30;6.57;;;5.80;99.90;;;;;;5056289;28;20127;-74
2020/12/18 05:51:32;;;;;;;17.42;7.65;;;5.80;99.90;;;;;;5056374;28;20081;-74
2020/12/18 05:54:13;;;;;;;19.42;7.65;;;5.80;99.90;;;;;;5074432;28;20032;-74
2020/12/18 05:56:42;;;;;;;14.15;7.43;;;5.80;99.90;;;;;;5073907;28;20028;-74
2020/12/18 05:59:10;;;;;;;17.38;7.55;;;5.70;99.90;;;;;;5074127;28;20487;-74
2020/12/18 06:01:42;;;;;;;12.52;6.35;;;5.70;99.90;;;;;;5056068;28;20029;-75
2020/12/18 06:04:11;;;;;;;12.77;6.55;;;5.80;99.90;;;;;;5074036;28;20021;-74
2020/12/18 06:06:45;;;;;;;20.67;7.10;;;5.70;99.90;;;;;;5056076;28;20035;-74
2020/12/18 06:09:11;;;;;;;13.40;6.32;;;5.70;99.90;;;;;;5074001;28;20027;-74
2020/12/18 06:11:37;;;;;;;12.02;5.80;;;5.70;99.90;;;;;;5073463;28;20464;-75
2020/12/18 06:14:05;;;;;;;16.45;6.65;;;5.70;99.90;;;;;;5073158;28;20069;-74
2020/12/18 06:16:36;;;;;;;13.90;6.70;;;5.80;99.90;;;;;;5082552;28;20039;-74
2020/12/18 06:19:04;;;;;;;13.82;6.20;;;5.80;99.90;;;;;;5075572;28;20032;-74
2020/12/18 06:21:30;;;;;;;15.10;5.93;;;5.80;99.90;;;;;;5093695;28;20020;-74
2020/12/18 06:23:56;;;;;;;16.05;6.15;;;5.80;99.90;;;;;;5094051;28;20066;-74
2020/12/18 06:26:22;;;;;;;10.82;5.53;;;5.80;99.90;;;;;;5075599;28;20028;-74
2020/12/18 06:28:48;;;;;;;9.95;5.50;;;5.80;99.90;;;;;;5093988;28;20035;-74
2020/12/18 06:31:30;;;;;;;14.25;5.70;;;5.80;99.90;;;;;;5075666;28;20115;-74
2020/12/18 06:33:57;;;;;;;9.52;4.82;;;5.90;99.90;;;;;;5093921;28;20103;-74
2020/12/18 06:36:45;;;;;;;15.15;5.43;;;5.90;99.90;;;;;;5077571;28;20028;-74
2020/12/18 06:39:27;;;;;;;11.82;5.70;;;6.00;99.90;;;;;;5073388;28;20499;-75
2020/12/18 06:42:19;;;;;;;9.82;4.88;;;6.00;99.90;;;;;;5055239;28;20027;-74
2020/12/18 06:44:47;;;;;;;13.23;5.95;;;6.00;99.90;;;;;;5077231;28;20052;-75
2020/12/18 06:47:17;;;;;;;13.55;5.07;;;6.00;99.90;;;;;;5063399;28;20020;-74
2020/12/18 06:49:55;;;;;;;16.38;5.25;;;6.00;99.90;;;;;;5073234;28;20412;-74
2020/12/18 06:52:39;;;;;;;16.00;4.85;;;6.00;99.90;;;;;;5073232;28;20043;-74
2020/12/18 06:55:07;;;;;;;11.23;5.65;;;6.00;99.90;;;;;;5058160;28;20024;-74
2020/12/18 06:57:34;;;;;;;12.00;5.70;;;6.00;99.90;;;;;;5064748;28;20085;-74
2020/12/18 07:00:21;;;;;;;17.08;5.35;;;6.10;99.90;;;;;;5073273;28;20053;-74
2020/12/18 07:02:47;;;;;;;16.30;5.30;;;6.10;99.90;;;;;;5055022;28;20057;-74
2020/12/18 07:05:30;;;;;;;9.43;4.55;;;6.10;99.90;;;;;;5073095;28;20052;-74
2020/12/18 07:07:58;;;;;;;11.50;4.95;;;6.10;99.90;;;;;;5073053;28;20383;-75
2020/12/18 07:10:34;;;;;;;14.40;4.57;;;6.10;99.90;;;;;;5055155;28;20021;-74
2020/12/18 07:13:01;;;;;;;12.60;4.95;;;6.10;99.90;;;;;;5072915;28;20066;-74
2020/12/18 07:15:42;;;;;;;9.25;5.07;;;6.10;99.90;;;;;;5072912;28;20533;-74
2020/12/18 07:18:32;;;;;;;11.38;5.72;;;6.10;99.90;;;;;;5072927;28;20469;-74
2020/12/18 07:21:06;;;;;;;16.58;5.68;;;6.10;99.90;;;;;;5055223;28;20033;-74
2020/12/18 07:23:35;;;;;;;19.67;5.43;;;6.10;99.90;;;;;;5072881;28;20023;-74
2020/12/18 07:26:02;;;;;;;15.82;6.13;;;6.10;99.90;;;;;;5080472;28;20432;-74
2020/12/18 07:28:29;;;;;;;11.10;4.65;;;6.10;99.90;;;;;;5082780;28;20035;-74
2020/12/18 07:30:56;;;;;;;12.93;4.78;;;6.10;99.90;;;;;;5069142;28;20024;-75
2020/12/18 07:33:23;;;;;;;11.07;5.07;;;6.20;99.90;;;;;;5092876;28;20036;-74
2020/12/18 07:35:53;;;;;;;15.73;5.32;;;6.20;99.90;;;;;;5063634;28;20024;-74
2020/12/18 07:38:32;;;;;;;7.88;4.55;;;6.20;99.90;;;;;;5062357;28;20025;-74
2020/12/18 07:41:03;;;;;;;13.70;5.80;;;6.20;99.90;;;;;;5065221;28;20074;-74
2020/12/18 07:43:34;;;;;;;9.88;4.88;;;6.30;99.90;;;;;;5080327;28;20440;-74
2020/12/18 07:46:04;;;;;;;9.48;4.95;;;6.30;99.90;;;;;;5081408;28;20391;-74
2020/12/18 07:48:31;;;;;;;;;;;6.30;99.90;;;;;;5082833;28;20024;-74
2020/12/18 07:51:03;;;;;;;9.55;4.93;;;6.30;99.90;;;;;;5083006;28;19913;-75
2020/12/18 07:53:32;;;;;;;13.07;5.15;;;6.30;99.90;;;;;;5065098;28;20024;-75
2020/12/18 07:56:14;;;;;;;19.73;5.82;;;6.40;99.90;;;;;;5064994;28;20032;-75
2020/12/18 07:59:06;;;;;;;13.43;5.70;;;6.40;99.90;;;;;;5065006;28;20038;-74
2020/12/18 08:01:33;;;;;;;13.85;6.25;;;6.50;99.90;;;;;;5072686;28;20043;-74
2020/12/18 08:04:04;;;;;;;8.80;5.03;;;6.50;99.90;;;;;;5078205;28;20032;-74
2020/12/18 08:06:32;;;;;;;12.80;6.32;;;6.50;99.90;;;;;;5096501;28;20012;-74
2020/12/18 08:09:03;;;;;;;9.93;4.85;;;6.50;99.90;;;;;;5078661;28;20027;-73
2020/12/18 08:11:31;;;;;;;13.52;5.13;;;6.60;99.90;;;;;;5096583;28;20101;-74
2020/12/18 08:13:58;;;;;;;14.50;4.85;;;6.60;99.90;;;;;;5096207;28;20024;-74
2020/12/18 08:16:25;;;;;;;10.55;4.70;;;6.70;99.90;;;;;;5084089;28;20033;-74
2020/12/18 08:18:58;;;;;;;9.05;4.38;;;6.70;99.90;;;;;;5066866;28;20021;-73
2020/12/18 08:21:25;;;;;;;12.38;4.88;;;6.70;99.90;;;;;;5063057;28;20067;-74
2020/12/18 08:24:07;;;;;;;12.52;4.78;;;6.80;99.90;;;;;;5067609;28;20057;-73
2020/12/18 08:26:44;;;;;;;9.73;4.65;;;6.80;99.90;;;;;;5095734;28;20022;-74
2020/12/18 08:29:12;;;;;;;10.60;4.47;;;6.90;99.90;;;;;;5077894;28;20031;-74
2020/12/18 08:31:42;;;;;;;13.63;4.45;;;6.90;99.90;;;;;;5096158;28;20494;-74
2020/12/18 08:34:09;;;;;;;;;;;7.00;99.90;;;;;;5092399;28;20497;-74
2020/12/18 08:36:44;;;;;;;9.90;4.45;;;7.00;99.90;;;;;;5060137;28;19908;-74
2020/12/18 08:39:11;;;;;;;10.55;5.38;;;7.00;99.90;;;;;;5057634;28;20062;-75
2020/12/18 08:41:47;;;;;;;11.68;4.97;;;7.10;99.90;;;;;;5057821;28;20100;-74
2020/12/18 08:44:18;;;;;;;12.57;4.30;;;7.10;99.90;;;;;;5057605;28;20070;-74
2020/12/18 08:46:45;;;;;;;8.65;4.55;;;7.20;99.90;;;;;;5057655;28;20025;-74
2020/12/18 08:49:15;;;;;;;12.90;4.82;;;7.20;99.90;;;;;;5075290;28;20496;-74
2020/12/18 08:51:41;;;;;;;11.38;5.20;;;7.20;99.90;;;;;;5069852;28;20048;-74
2020/12/18 08:54:25;;;;;;;11.23;4.63;;;7.20;99.90;;;;;;5076825;28;20028;-74
2020/12/18 08:57:10;;;;;;;14.57;5.18;;;7.30;99.90;;;;;;5095701;28;20020;-74
2020/12/18 08:59:36;;;;;;;10.73;5.45;;;7.30;99.90;;;;;;5077281;28;20024;-74
2020/12/18 09:02:01;;;;;;;11.88;5.80;;;7.30;99.90;;;;;;5095551;28;20047;-74
2020/12/18 09:04:27;;;;;;;12.50;5.38;;;7.40;99.90;;;;;;5093193;28;20038;-74
2020/12/18 09:06:52;;;;;;;12.75;5.65;;;7.40;99.90;;;;;;5083208;28;20021;-74
2020/12/18 09:09:18;;;;;;;12.30;5.15;;;7.40;99.90;;;;;;5080107;28;20488;-74
2020/12/18 09:11:46;;;;;;;12.18;5.57;;;7.50;99.90;;;;;;5082981;28;20502;-74
2020/12/18 09:14:28;;;;;;;9.68;5.15;;;7.50;99.90;;;;;;5056912;28;20047;-74
2020/12/18 09:17:00;;;;;;;10.38;4.85;;;7.50;99.90;;;;;;5075033;28;20032;-74
2020/12/18 09:19:25;;;;;;;7.43;4.07;;;7.60;99.90;;;;;;5074954;28;20035;-74
2020/12/18 09:22:04;;;;;;;11.88;5.22;;;7.60;99.90;;;;;;5073256;28;20024;-75
2020/12/18 09:24:29;;;;;;;10.85;5.43;;;7.60;99.90;;;;;;5076539;28;20365;-75
2020/12/18 09:27:12;;;;;;;8.77;5.07;;;7.60;99.90;;;;;;5095095;28;20039;-75
2020/12/18 09:29:38;;;;;;;14.90;5.05;;;7.70;99.90;;;;;;5092573;28;20051;-75
2020/12/18 09:32:07;;;;;;;11.95;5.30;;;7.70;99.90;;;;;;5061362;28;20020;-75
2020/12/18 09:34:33;;;;;;;11.85;5.10;;;7.80;99.90;;;;;;5094692;28;20016;-79
2020/12/18 09:37:10;;;;;;;13.77;5.15;;;7.80;99.90;;;;;;5095008;28;20031;-78
2020/12/18 09:39:35;;;;;;;12.23;5.25;;;7.80;99.90;;;;;;5091591;28;20028;-78
2020/12/18 09:42:01;;;;;;;16.30;7.60;;;7.90;99.90;;;;;;5067419;28;20452;-77
2020/12/18 09:44:26;;;;;;;13.80;5.45;;;7.90;99.90;;;;;;5059257;28;20036;-78
2020/12/18 09:46:52;;;;;;;9.10;5.40;;;7.90;99.90;;;;;;5074456;28;20024;-77
2020/12/18 09:49:17;;;;;;;11.05;5.10;;;7.90;99.90;;;;;;5089845;28;20048;-78
2020/12/18 09:51:46;;;;;;;10.25;5.57;;;7.90;99.90;;;;;;5056507;28;20025;-77
2020/12/18 09:54:11;;;;;;;9.25;5.38;;;7.90;99.90;;;;;;5081044;28;20043;-78
2020/12/18 09:56:37;;;;;;;9.38;4.75;;;7.90;99.90;;;;;;5076325;28;20368;-78
2020/12/18 09:59:02;;;;;;;10.77;5.13;;;7.90;99.90;;;;;;5076257;28;20505;-75
2020/12/18 10:01:28;;;;;;;13.43;5.63;;;7.90;99.90;;;;;;5093942;28;20491;-75
2020/12/18 10:03:53;;;;;;;10.80;5.70;;;7.90;99.90;;;;;;5063511;28;20060;-79
2020/12/18 10:06:26;;;;;;;11.32;5.53;;;7.90;99.90;;;;;;5086004;28;20378;-78
2020/12/18 10:08:52;;;;;;;9.90;5.25;;;8.00;99.90;;;;;;5085345;28;20024;-78
2020/12/18 10:11:18;;;;;;;10.70;5.63;;;8.10;99.90;;;;;;5066071;28;20028;-76
2020/12/18 10:13:43;;;;;;;12.95;5.10;;;8.10;99.90;;;;;;5065212;28;20023;-76
2020/12/18 10:16:09;;;;;;;8.65;4.70;;;8.20;99.90;;;;;;5093777;28;20016;-75
2020/12/18 10:18:35;;;;;;;9.60;4.82;;;8.30;99.90;;;;;;5075678;28;20423;-76
2020/12/18 10:21:03;;;;;;;11.35;5.90;;;8.40;99.90;;;;;;5076049;28;20025;-76
2020/12/18 10:23:29;;;;;;;9.55;4.47;;;8.50;99.90;;;;;;5072718;28;20020;-76
2020/12/18 10:25:54;;;;;;;10.15;4.18;;;8.50;99.90;;;;;;5093989;28;20486;-76
2020/12/18 10:28:20;;;;;;;12.10;4.28;;;8.60;99.90;;;;;;5093950;28;20039;-76
2020/12/18 10:30:45;;;;;;;8.00;3.42;;;8.70;99.90;;;;;;5093859;28;20035;-76
2020/12/18 10:33:11;;;;;;;10.10;3.75;;;9.00;99.90;;;;;;5093565;28;20059;-76
2020/12/18 10:35:36;;;;;;;8.13;3.38;;;9.10;99.90;;;;;;5083735;28;20476;-76
2020/12/18 10:38:02;;;;;;;12.75;4.13;;;9.40;99.90;;;;;;5072953;28;20039;-76
2020/12/18 10:40:27;;;;;;;4.65;2.85;;;9.60;99.10;;;;;;5055241;28;20021;-76
2020/12/18 10:42:54;;;;;;;7.60;3.70;;;9.60;98.60;;;;;;5055088;28;20641;-76
2020/12/18 10:45:20;;;;;;;7.75;3.22;;;9.60;98.70;;;;;;5055259;28;20025;-76
2020/12/18 10:47:45;;;;;;;8.15;3.33;;;10.00;98.50;;;;;;5055360;28;20033;-76
2020/12/18 10:50:11;;;;;;;5.55;3.05;;;10.20;97.60;;;;;;5072995;28;20450;-76
2020/12/18 10:52:36;;;;;;;12.20;3.65;;;10.50;97.30;;;;;;5065908;28;20113;-76
2020/12/18 10:55:02;;;;;;;5.47;3.15;;;10.60;96.00;;;;;;5083207;28;20032;-76
2020/12/18 10:57:28;;;;;;;8.05;3.40;;;10.50;96.00;;;;;;5076273;28;20504;-76
2020/12/18 10:59:53;;;;;;;7.75;3.72;;;10.50;95.90;;;;;;5068252;28;20020;-76
2020/12/18 11:02:19;;;;;;;12.00;3.30;;;10.40;95.90;;;;;;5080769;28;20477;-76
2020/12/18 11:04:44;;;;;;;11.32;3.83;;;10.40;96.40;;;;;;5072726;28;20023;-76
2020/12/18 11:07:10;;;;;;;9.70;3.58;;;10.40;96.20;;;;;;5086045;28;20028;-76
2020/12/18 11:09:36;;;;;;;11.05;4.07;;;10.30;96.10;;;;;;5053965;28;20082;-76
2020/12/18 11:12:02;;;;;;;9.10;3.05;;;10.20;96.20;;;;;;5072188;28;20058;-76
2020/12/18 11:14:27;;;;;;;12.98;3.83;;;10.10;96.30;;;;;;5073911;28;20058;-76
2020/12/18 11:16:54;;;;;;;7.25;3.75;;;10.10;96.80;;;;;;5071290;28;20052;-76
2020/12/18 11:19:20;;;;;;;10.27;3.15;;;10.10;96.80;;;;;;5071981;28;20017;-76
2020/12/18 11:21:46;;;;;;;12.77;3.60;;;10.10;96.90;;;;;;5072386;28;20020;-76
2020/12/18 11:24:12;;;;;;;6.00;3.13;;;10.20;97.00;;;;;;5053810;28;20024;-76
2020/12/18 11:26:38;;;;;;;9.95;3.58;;;10.30;96.80;;;;;;5071699;28;20020;-76
2020/12/18 11:29:04;;;;;;;8.57;3.30;;;10.30;97.00;;;;;;5071621;28;20057;-76
2020/12/18 11:31:38;;;;;;;6.10;2.72;;;10.40;96.50;;;;;;5056991;28;20111;-77
2020/12/18 11:34:03;;;;;;;10.05;3.55;;;10.50;96.50;;;;;;5071352;28;20028;-76
2020/12/18 11:36:29;;;;;;;8.63;3.80;;;10.60;96.20;;;;;;5053880;28;20090;-76
2020/12/18 11:38:54;;;;;;;9.57;3.53;;;10.60;95.80;;;;;;5072063;28;20025;-76
2020/12/18 11:41:20;;;;;;;12.93;4.07;;;10.70;95.50;;;;;;5075036;28;20032;-76
2020/12/18 11:43:47;;;;;;;8.02;3.20;;;10.70;96.20;;;;;;5073956;28;20095;-76
2020/12/18 11:46:12;;;;;;;12.13;3.35;;;10.80;95.70;;;;;;5054188;28;20020;-76
2020/12/18 11:48:38;;;;;;;6.65;2.65;;;10.80;95.20;;;;;;5071734;28;20082;-76
2020/12/18 11:51:03;;;;;;;10.43;2.85;;;10.80;95.70;;;;;;5071878;28;20036;-76
2020/12/18 11:53:29;;;;;;;7.07;2.45;;;11.00;95.60;;;;;;5071964;28;20391;-76
2020/12/18 11:55:54;;;;;;;5.63;2.20;;;11.10;95.00;;;;;;5071537;28;20539;-77
2020/12/18 11:58:20;;;;;;;9.07;2.65;;;11.30;94.90;;;;;;5054203;28;20021;-77
2020/12/18 12:00:46;;;;;;;7.78;2.40;;;11.50;94.10;;;;;;5072322;28;20039;-76
2020/12/18 12:03:12;;;;;;;5.65;2.42;;;11.50;94.00;;;;;;5079309;28;20020;-77
2020/12/18 12:05:37;;;;;;;8.05;3.00;;;11.50;94.20;;;;;;5053903;28;20044;-77
2020/12/18 12:08:03;;;;;;;7.15;1.70;;;11.40;94.10;;;;;;5062430;28;20539;-76
2020/12/18 12:10:30;;;;;;;7.15;1.83;;;11.30;94.60;;;;;;5050835;28;20032;-77
2020/12/18 12:12:56;;;;;;;6.28;1.63;;;11.40;94.20;;;;;;5070169;28;20496;-76
2020/12/18 12:15:22;;;;;;;7.47;1.60;;;11.40;94.10;;;;;;5058358;28;20040;-77
2020/12/18 12:17:48;;;;;;;4.28;1.30;;;11.40;93.40;;;;;;5072500;28;20114;-76
2020/12/18 12:20:13;;;;;;;5.18;1.20;;;11.50;93.70;;;;;;5071446;28;20024;-77
2020/12/18 12:22:39;;;;;;;6.88;1.40;;;11.60;93.60;;;;;;5066387;28;20025;-76
2020/12/18 12:25:04;;;;;;;7.75;1.88;;;11.60;93.50;;;;;;5052208;28;20024;-76
2020/12/18 12:27:30;;;;;;;6.32;1.52;;;11.70;92.90;;;;;;5057863;28;20027;-77
2020/12/18 12:29:56;;;;;;;4.40;1.52;;;11.70;92.90;;;;;;5071666;28;20029;-77
2020/12/18 12:32:21;;;;;;;5.10;1.38;;;11.70;92.00;;;;;;5070357;28;20615;-76
2020/12/18 12:34:47;;;;;;;7.22;1.27;;;12.00;92.00;;;;;;5070447;28;20500;-76
2020/12/18 12:37:13;;;;;;;6.45;1.88;;;12.00;92.10;;;;;;5071220;28;20025;-76
2020/12/18 12:39:39;;;;;;;5.32;1.75;;;12.00;90.90;;;;;;5065372;28;20026;-77
2020/12/18 12:42:05;;;;;;;6.05;1.95;;;12.10;91.90;;;;;;5071222;28;20044;-77
2020/12/18 12:44:31;;;;;;;6.72;1.73;;;12.30;91.80;;;;;;5073380;28;20040;-77
2020/12/18 12:46:57;;;;;;;2.47;1.15;;;12.70;91.10;;;;;;5077987;28;20028;-77
2020/12/18 12:49:23;;;;;;;6.55;1.38;;;13.00;89.70;;;;;;5084202;28;20135;-77
2020/12/18 12:51:52;;;;;;;2.95;1.08;;;13.30;87.30;;;;;;5056586;28;20119;-77